sensor_id;sensor_type;location;lat;lon;timestamp;pressure;altitude;pressure_sealevel;temperature;humidity
32330;BME280;18807;52.434;13.238;2023-07-31T00:02:15;75337.00;;;-142.05;100.00
32330;BME280;18807;52.434;13.238;2023-07-31T00:09:50;75334.97;;;-142.05;100.00
32330;BME280;18807;52.434;13.238;2023-07-31T00:17:27;75334.97;;;-142.05;100.00
32330;BME280;18807;52.434;13.238;2023-07-31T00:25:03;75328.84;;;-142.05;100.00
32330;BME280;18807;52.434;13.238;2023-07-31T00:32:39;75322.72;;;-142.05;100.00
32330;BME280;18807;52.434;13.238;2023-07-31T00:40:15;75324.78;;;-142.05;100.00
32330;BME280;18807;52.434;13.238;2023-07-31T00:47:49;75326.81;;;-142.05;100.00
32330;BME280;18807;52.434;13.238;2023-07-31T00:55:26;75326.81;;;-142.05;100.00
32330;BME280;18807;52.434;13.238;2023-07-31T01:03:01;75310.47;;;-142.05;100.00
32330;BME280;18807;52.434;13.238;2023-07-31T01:10:44;75322.72;;;-142.05;100.00
32330;BME280;18807;52.434;13.238;2023-07-31T01:18:20;75312.53;;;-142.05;100.00
32330;BME280;18807;52.434;13.238;2023-07-31T01:26:00;75308.44;;;-142.05;100.00
32330;BME280;18807;52.434;13.238;2023-07-31T01:33:37;75298.25;;;-142.05;100.00
32330;BME280;18807;52.434;13.238;2023-07-31T01:41:16;75294.16;;;-142.05;100.00
32330;BME280;18807;52.434;13.238;2023-07-31T01:48:50;75288.03;;;-142.05;100.00
32330;BME280;18807;52.434;13.238;2023-07-31T01:56:26;75275.78;;;-142.05;100.00
32330;BME280;18807;52.434;13.238;2023-07-31T02:04:01;75277.84;;;-142.05;100.00
32330;BME280;18807;52.434;13.238;2023-07-31T02:11:39;75277.84;;;-142.05;100.00
32330;BME280;18807;52.434;13.238;2023-07-31T02:19:13;75273.75;;;-142.05;100.00
32330;BME280;18807;52.434;13.238;2023-07-31T02:26:49;75281.91;;;-142.05;100.00
32330;BME280;18807;52.434;13.238;2023-07-31T02:34:23;75283.97;;;-142.05;100.00
32330;BME280;18807;52.434;13.238;2023-07-31T02:41:59;75277.84;;;-142.05;100.00
32330;BME280;18807;52.434;13.238;2023-07-31T02:49:34;75279.88;;;-142.05;100.00
32330;BME280;18807;52.434;13.238;2023-07-31T02:57:10;75269.69;;;-142.05;100.00
32330;BME280;18807;52.434;13.238;2023-07-31T03:04:44;75263.56;;;-142.05;100.00
32330;BME280;18807;52.434;13.238;2023-07-31T03:12:20;75261.50;;;-142.05;100.00
32330;BME280;18807;52.434;13.238;2023-07-31T03:19:54;75255.38;;;-142.05;100.00
32330;BME280;18807;52.434;13.238;2023-07-31T03:27:30;75251.31;;;-142.05;100.00
32330;BME280;18807;52.434;13.238;2023-07-31T03:35:06;75239.06;;;-142.05;100.00
32330;BME280;18807;52.434;13.238;2023-07-31T03:42:42;75243.16;;;-142.05;100.00
32330;BME280;18807;52.434;13.238;2023-07-31T03:50:16;75237.03;;;-142.05;100.00
32330;BME280;18807;52.434;13.238;2023-07-31T03:57:52;75237.03;;;-142.05;100.00
32330;BME280;18807;52.434;13.238;2023-07-31T04:05:26;75239.06;;;-142.05;100.00
32330;BME280;18807;52.434;13.238;2023-07-31T04:13:02;75232.94;;;-142.05;100.00
32330;BME280;18807;52.434;13.238;2023-07-31T04:20:36;75226.81;;;-142.05;100.00
32330;BME280;18807;52.434;13.238;2023-07-31T04:28:14;75212.53;;;-142.05;100.00
32330;BME280;18807;52.434;13.238;2023-07-31T04:35:50;75216.63;;;-142.05;100.00
32330;BME280;18807;52.434;13.238;2023-07-31T04:43:27;75206.41;;;-142.05;100.00
32330;BME280;18807;52.434;13.238;2023-07-31T04:51:01;75196.22;;;-142.05;100.00
32330;BME280;18807;52.434;13.238;2023-07-31T04:58:38;75202.34;;;-142.05;100.00
32330;BME280;18807;52.434;13.238;2023-07-31T05:06:13;75192.13;;;-142.05;100.00
32330;BME280;18807;52.434;13.238;2023-07-31T05:13:49;75196.22;;;-142.05;100.00
32330;BME280;18807;52.434;13.238;2023-07-31T05:21:23;75192.13;;;-142.05;100.00
32330;BME280;18807;52.434;13.238;2023-07-31T05:28:59;75181.94;;;-142.05;100.00
32330;BME280;18807;52.434;13.238;2023-07-31T05:36:34;75179.91;;;-142.05;100.00
32330;BME280;18807;52.434;13.238;2023-07-31T05:44:10;75165.63;;;-142.05;100.00
32330;BME280;18807;52.434;13.238;2023-07-31T05:51:44;75155.41;;;-142.05;100.00
32330;BME280;18807;52.434;13.238;2023-07-31T05:59:21;75153.38;;;-142.05;100.00
32330;BME280;18807;52.434;13.238;2023-07-31T06:06:55;75141.13;;;-142.05;100.00
32330;BME280;18807;52.434;13.238;2023-07-31T06:14:31;75132.97;;;-142.05;100.00
32330;BME280;18807;52.434;13.238;2023-07-31T06:22:05;75124.81;;;-142.05;100.00
32330;BME280;18807;52.434;13.238;2023-07-31T06:29:42;75112.56;;;-142.05;100.00
32330;BME280;18807;52.434;13.238;2023-07-31T06:37:16;75114.59;;;-142.05;100.00
32330;BME280;18807;52.434;13.238;2023-07-31T06:44:52;75108.47;;;-142.05;100.00
32330;BME280;18807;52.434;13.238;2023-07-31T06:52:27;75110.53;;;-142.05;100.00
32330;BME280;18807;52.434;13.238;2023-07-31T07:00:03;75106.44;;;-142.05;100.00
32330;BME280;18807;52.434;13.238;2023-07-31T07:07:37;75106.44;;;-142.05;100.00
32330;BME280;18807;52.434;13.238;2023-07-31T07:15:13;75098.28;;;-142.05;100.00
32330;BME280;18807;52.434;13.238;2023-07-31T07:22:47;75094.19;;;-142.05;100.00
32330;BME280;18807;52.434;13.238;2023-07-31T07:30:24;75086.03;;;-142.05;100.00
32330;BME280;18807;52.434;13.238;2023-07-31T07:37:59;75086.03;;;-142.05;100.00
32330;BME280;18807;52.434;13.238;2023-07-31T07:45:35;75069.72;;;-142.05;100.00
32330;BME280;18807;52.434;13.238;2023-07-31T07:53:09;75059.50;;;-142.05;100.00
32330;BME280;18807;52.434;13.238;2023-07-31T08:00:50;75053.41;;;-142.05;100.00
32330;BME280;18807;52.434;13.238;2023-07-31T08:08:25;75051.34;;;-142.05;100.00
32330;BME280;18807;52.434;13.238;2023-07-31T08:16:00;75039.09;;;-142.05;100.00
32330;BME280;18807;52.434;13.238;2023-07-31T08:23:34;75016.66;;;-142.05;100.00
32330;BME280;18807;52.434;13.238;2023-07-31T08:31:10;75012.59;;;-142.05;100.00
32330;BME280;18807;52.434;13.238;2023-07-31T08:38:45;75008.50;;;-142.05;100.00
32330;BME280;18807;52.434;13.238;2023-07-31T08:46:21;74990.16;;;-142.05;100.00
32330;BME280;18807;52.434;13.238;2023-07-31T08:53:55;74981.97;;;-142.05;100.00
32330;BME280;18807;52.434;13.238;2023-07-31T09:01:33;74957.50;;;-142.05;100.00
32330;BME280;18807;52.434;13.238;2023-07-31T09:09:09;74935.06;;;-142.05;100.00
32330;BME280;18807;52.434;13.238;2023-07-31T09:16:53;74965.66;;;-142.05;100.00
32330;BME280;18807;52.434;13.238;2023-07-31T09:24:29;74963.63;;;-142.05;100.00
32330;BME280;18807;52.434;13.238;2023-07-31T09:32:15;74955.47;;;-142.05;100.00
32330;BME280;18807;52.434;13.238;2023-07-31T09:39:50;74955.47;;;-142.05;100.00
32330;BME280;18807;52.434;13.238;2023-07-31T09:47:30;74951.38;;;-142.05;100.00
32330;BME280;18807;52.434;13.238;2023-07-31T09:55:05;74930.97;;;-142.05;100.00
32330;BME280;18807;52.434;13.238;2023-07-31T10:02:44;74922.81;;;-142.05;100.00
32330;BME280;18807;52.434;13.238;2023-07-31T10:10:20;74902.41;;;-142.05;100.00
32330;BME280;18807;52.434;13.238;2023-07-31T10:17:57;74888.13;;;-142.05;100.00
32330;BME280;18807;52.434;13.238;2023-07-31T10:25:33;74873.84;;;-142.05;100.00
32330;BME280;18807;52.434;13.238;2023-07-31T10:33:10;74833.03;;;-142.05;100.00
32330;BME280;18807;52.434;13.238;2023-07-31T10:40:45;74767.75;;;-142.05;100.00
32330;BME280;18807;52.434;13.238;2023-07-31T10:48:21;74678.00;;;-142.05;100.00
32330;BME280;18807;52.434;13.238;2023-07-31T10:55:58;74618.84;;;-142.05;100.00
32330;BME280;18807;52.434;13.238;2023-07-31T11:03:46;74604.56;;;-142.05;100.00
32330;BME280;18807;52.434;13.238;2023-07-31T11:11:21;74590.28;;;-142.05;99.36
32330;BME280;18807;52.434;13.238;2023-07-31T11:18:57;74580.06;;;-142.05;88.12
32330;BME280;18807;52.434;13.238;2023-07-31T11:26:31;74586.19;;;-142.05;81.18
32330;BME280;18807;52.434;13.238;2023-07-31T11:34:08;74578.03;;;-142.05;78.19
32330;BME280;18807;52.434;13.238;2023-07-31T11:41:42;74573.94;;;-142.05;78.22
32330;BME280;18807;52.434;13.238;2023-07-31T11:49:18;74573.94;;;-142.05;79.95
32330;BME280;18807;52.434;13.238;2023-07-31T11:56:52;74576.00;;;-142.05;78.53
32330;BME280;18807;52.434;13.238;2023-07-31T12:04:28;74553.56;;;-142.05;80.13
32330;BME280;18807;52.434;13.238;2023-07-31T12:12:08;74547.44;;;-142.05;77.09
32330;BME280;18807;52.434;13.238;2023-07-31T12:19:48;74533.16;;;-142.05;75.52
32330;BME280;18807;52.434;13.238;2023-07-31T12:27:23;74516.84;;;-142.05;74.55
32330;BME280;18807;52.434;13.238;2023-07-31T12:35:01;74480.13;;;-142.05;74.51
32330;BME280;18807;52.434;13.238;2023-07-31T12:42:36;74445.44;;;-142.05;74.12
32330;BME280;18807;52.434;13.238;2023-07-31T12:50:12;74427.06;;;-142.05;71.88
32330;BME280;18807;52.434;13.238;2023-07-31T12:57:48;74420.94;;;-142.05;71.43
32330;BME280;18807;52.434;13.238;2023-07-31T13:05:24;74423.00;;;-142.05;70.67
32330;BME280;18807;52.434;13.238;2023-07-31T13:12:58;74435.22;;;-142.05;70.47
32330;BME280;18807;52.434;13.238;2023-07-31T13:20:34;74433.19;;;-142.05;72.15
32330;BME280;18807;52.434;13.238;2023-07-31T13:28:08;74408.72;;;-142.05;73.37
32330;BME280;18807;52.434;13.238;2023-07-31T13:35:44;74361.78;;;-142.05;71.98
32330;BME280;18807;52.434;13.238;2023-07-31T13:43:18;74345.47;;;-142.05;70.04
32330;BME280;18807;52.434;13.238;2023-07-31T13:50:58;74333.22;;;-142.05;70.14
32330;BME280;18807;52.434;13.238;2023-07-31T13:58:33;74335.28;;;-142.05;68.90
32330;BME280;18807;52.434;13.238;2023-07-31T14:06:08;74314.88;;;-142.05;68.73
32330;BME280;18807;52.434;13.238;2023-07-31T14:13:42;74323.03;;;-142.05;68.68
32330;BME280;18807;52.434;13.238;2023-07-31T14:21:18;74323.03;;;-142.05;68.11
32330;BME280;18807;52.434;13.238;2023-07-31T14:28:52;74310.78;;;-142.05;68.65
32330;BME280;18807;52.434;13.238;2023-07-31T14:36:28;74302.63;;;-142.05;67.54
32330;BME280;18807;52.434;13.238;2023-07-31T14:44:03;74298.56;;;-142.05;63.84
32330;BME280;18807;52.434;13.238;2023-07-31T14:51:40;74302.63;;;-142.05;64.46
32330;BME280;18807;52.434;13.238;2023-07-31T14:59:14;74300.59;;;-142.05;65.85
32330;BME280;18807;52.434;13.238;2023-07-31T15:06:49;74302.63;;;-142.05;64.99
32330;BME280;18807;52.434;13.238;2023-07-31T15:14:26;74300.59;;;-142.05;67.58
32330;BME280;18807;52.434;13.238;2023-07-31T15:22:06;74298.56;;;-142.05;70.25
32330;BME280;18807;52.434;13.238;2023-07-31T15:29:41;74310.78;;;-142.05;71.81
32330;BME280;18807;52.434;13.238;2023-07-31T15:37:17;74292.44;;;-142.05;74.35
32330;BME280;18807;52.434;13.238;2023-07-31T15:44:51;74288.34;;;-142.05;73.86
32330;BME280;18807;52.434;13.238;2023-07-31T15:52:27;74274.06;;;-142.05;75.46
32330;BME280;18807;52.434;13.238;2023-07-31T16:00:02;74265.91;;;-142.05;74.88
32330;BME280;18807;52.434;13.238;2023-07-31T16:07:38;74284.28;;;-142.05;69.63
32330;BME280;18807;52.434;13.238;2023-07-31T16:15:12;74284.28;;;-142.05;66.95
32330;BME280;18807;52.434;13.238;2023-07-31T16:22:49;74296.50;;;-142.05;65.69
32330;BME280;18807;52.434;13.238;2023-07-31T16:30:23;74300.59;;;-142.05;65.59
32330;BME280;18807;52.434;13.238;2023-07-31T16:37:59;74286.31;;;-142.05;66.99
32330;BME280;18807;52.434;13.238;2023-07-31T16:45:34;74274.06;;;-142.05;65.10
32330;BME280;18807;52.434;13.238;2023-07-31T16:53:09;74255.72;;;-142.05;65.20
32330;BME280;18807;52.434;13.238;2023-07-31T17:00:44;74267.97;;;-142.05;65.75
32330;BME280;18807;52.434;13.238;2023-07-31T17:08:20;74267.97;;;-142.05;65.64
32330;BME280;18807;52.434;13.238;2023-07-31T17:15:54;74282.25;;;-142.05;65.79
32330;BME280;18807;52.434;13.238;2023-07-31T17:23:30;74323.03;;;-142.05;71.82
32330;BME280;18807;52.434;13.238;2023-07-31T17:31:05;74363.84;;;-142.05;81.27
32330;BME280;18807;52.434;13.238;2023-07-31T17:38:41;74372.00;;;-142.05;82.60
32330;BME280;18807;52.434;13.238;2023-07-31T17:46:16;74363.84;;;-142.05;83.78
32330;BME280;18807;52.434;13.238;2023-07-31T17:53:53;74365.88;;;-142.05;84.27
32330;BME280;18807;52.434;13.238;2023-07-31T18:01:28;74372.00;;;-142.05;80.32
32330;BME280;18807;52.434;13.238;2023-07-31T18:09:05;74363.84;;;-142.05;76.67
32330;BME280;18807;52.434;13.238;2023-07-31T18:16:39;74353.63;;;-142.05;73.63
32330;BME280;18807;52.434;13.238;2023-07-31T18:24:15;74355.69;;;-142.05;73.51
32330;BME280;18807;52.434;13.238;2023-07-31T18:31:50;74367.91;;;-142.05;74.21
32330;BME280;18807;52.434;13.238;2023-07-31T18:39:25;74372.00;;;-142.05;73.96
32330;BME280;18807;52.434;13.238;2023-07-31T18:47:00;74376.06;;;-142.05;75.11
32330;BME280;18807;52.434;13.238;2023-07-31T18:54:36;74380.16;;;-142.05;75.06
32330;BME280;18807;52.434;13.238;2023-07-31T19:02:10;74380.16;;;-142.05;75.93
32330;BME280;18807;52.434;13.238;2023-07-31T19:09:47;74394.44;;;-142.05;77.84
32330;BME280;18807;52.434;13.238;2023-07-31T19:17:36;74402.59;;;-142.05;78.65
32330;BME280;18807;52.434;13.238;2023-07-31T19:25:12;74400.56;;;-142.05;78.57
32330;BME280;18807;52.434;13.238;2023-07-31T19:32:47;74398.50;;;-142.05;79.54
32330;BME280;18807;52.434;13.238;2023-07-31T19:40:23;74404.63;;;-142.05;79.94
32330;BME280;18807;52.434;13.238;2023-07-31T19:47:58;74400.56;;;-142.05;80.92
32330;BME280;18807;52.434;13.238;2023-07-31T19:55:34;74396.47;;;-142.05;81.33
32330;BME280;18807;52.434;13.238;2023-07-31T20:03:09;74394.44;;;-142.05;81.61
32330;BME280;18807;52.434;13.238;2023-07-31T20:10:44;74382.19;;;-142.05;82.61
32330;BME280;18807;52.434;13.238;2023-07-31T20:18:18;74390.34;;;-142.05;83.80
32330;BME280;18807;52.434;13.238;2023-07-31T20:25:54;74380.16;;;-142.05;85.67
32330;BME280;18807;52.434;13.238;2023-07-31T20:33:28;74382.19;;;-142.05;86.83
32330;BME280;18807;52.434;13.238;2023-07-31T20:41:04;74378.13;;;-142.05;88.45
32330;BME280;18807;52.434;13.238;2023-07-31T20:48:38;74382.19;;;-142.05;89.61
32330;BME280;18807;52.434;13.238;2023-07-31T20:56:14;74386.28;;;-142.05;90.69
32330;BME280;18807;52.434;13.238;2023-07-31T21:03:48;74378.13;;;-142.05;91.23
32330;BME280;18807;52.434;13.238;2023-07-31T21:11:24;74378.13;;;-142.05;93.27
32330;BME280;18807;52.434;13.238;2023-07-31T21:18:59;74380.16;;;-142.05;94.88
32330;BME280;18807;52.434;13.238;2023-07-31T21:26:35;74376.06;;;-142.05;96.41
32330;BME280;18807;52.434;13.238;2023-07-31T21:34:10;74361.78;;;-142.05;97.50
32330;BME280;18807;52.434;13.238;2023-07-31T21:41:46;74365.88;;;-142.05;98.00
32330;BME280;18807;52.434;13.238;2023-07-31T21:49:20;74359.75;;;-142.05;99.14
32330;BME280;18807;52.434;13.238;2023-07-31T21:56:57;74355.69;;;-142.05;100.00
32330;BME280;18807;52.434;13.238;2023-07-31T22:04:31;74353.63;;;-142.05;100.00
32330;BME280;18807;52.434;13.238;2023-07-31T22:12:09;74351.59;;;-142.05;100.00
32330;BME280;18807;52.434;13.238;2023-07-31T22:19:44;74347.50;;;-142.05;100.00
32330;BME280;18807;52.434;13.238;2023-07-31T22:27:20;74339.34;;;-142.05;100.00
32330;BME280;18807;52.434;13.238;2023-07-31T22:34:54;74329.16;;;-142.05;100.00
32330;BME280;18807;52.434;13.238;2023-07-31T22:42:30;74318.97;;;-142.05;100.00
32330;BME280;18807;52.434;13.238;2023-07-31T22:50:06;74306.72;;;-142.05;99.81
32330;BME280;18807;52.434;13.238;2023-07-31T22:57:42;74302.63;;;-142.05;99.31
32330;BME280;18807;52.434;13.238;2023-07-31T23:05:17;74294.47;;;-142.05;97.39
32330;BME280;18807;52.434;13.238;2023-07-31T23:12:53;74294.47;;;-142.05;94.67
32330;BME280;18807;52.434;13.238;2023-07-31T23:20:27;74286.31;;;-142.05;94.96
32330;BME280;18807;52.434;13.238;2023-07-31T23:28:05;74276.13;;;-142.05;99.45
32330;BME280;18807;52.434;13.238;2023-07-31T23:35:41;74282.25;;;-142.05;100.00
32330;BME280;18807;52.434;13.238;2023-07-31T23:43:16;74282.25;;;-142.05;100.00
32330;BME280;18807;52.434;13.238;2023-07-31T23:50:51;74284.28;;;-142.05;100.00
32330;BME280;18807;52.434;13.238;2023-07-31T23:58:26;74290.41;;;-142.05;100.00
